Site contains unofficial IBTrACS data. Visit the IBTrACS Website to access archived data.

1888 Cyclonic Storm NOT_NAMED (1888275N15094)


IBTrACS version v04r00. Visit IBTrACS website for data access.
Please direct all questions to the IBTrACS Q and A forum

Storm track - Intensity - Wind Radii - Intensity Data - Source Data - All data

Summary Information

Storm ID 1888275N15094
Start Oct 1 00Z
Landfall Oct 6 12Z
Max Intensity 45 kt (Oct 1 03Z)
End Oct 7 03Z
ATCF IDs
Track status Best track data.

Storm track plot

Map of storm track

Intensity plots

Map of storm track

Radial wind information

No radial wind information for this storm


Position and Intensity Table

BASIN ISO_TIME_________ NATURE LAT LON DS824 WIND
degrees north degrees east kts
NI 1888-10-01 00:00:00 TS 14.50 93.80 45
NI 03:00:00 TS 14.50 93.80 45
NI 06:00:00 TS 14.50 93.80 45
NI 09:00:00 TS 14.50 93.80 45
NI 12:00:00 TS 14.50 93.80 45
NI 15:00:00 TS 14.50 93.80 45
NI 18:00:00 TS 14.50 93.81 45
NI 21:00:00 TS 14.50 93.82 45
NI 1888-10-02 00:00:00 TS 14.50 93.81 45
NI 03:00:00 TS 14.50 93.76 45
NI 06:00:00 TS 14.51 93.66 45
NI 09:00:00 TS 14.54 93.57 45
NI 12:00:00 TS 14.58 93.46 45
NI 15:00:00 TS 14.62 93.35 45
NI 18:00:00 TS 14.66 93.27 45
NI 21:00:00 TS 14.69 93.20 45
NI 1888-10-03 00:00:00 TS 14.75 93.08 45
NI 03:00:00 TS 14.89 92.84 45
NI 06:00:00 TS 15.07 92.52 45
NI 09:00:00 TS 15.27 92.21 45
NI 12:00:00 TS 15.48 91.88 45
NI 15:00:00 TS 15.72 91.53 45
NI 18:00:00 TS 15.97 91.18 45
NI 21:00:00 TS 16.23 90.82 45
NI 1888-10-04 00:00:00 TS 16.48 90.47 45
NI 03:00:00 TS 16.70 90.15 45
NI 06:00:00 TS 16.91 89.83 45
NI 09:00:00 TS 17.10 89.48 45
NI 12:00:00 TS 17.30 89.15 45
NI 15:00:00 TS 17.50 88.83 45
NI 18:00:00 TS 17.70 88.55 45
NI 21:00:00 TS 17.93 88.32 45
NI 1888-10-05 00:00:00 TS 18.18 88.16 45
NI 03:00:00 TS 18.45 88.08 45
NI 06:00:00 TS 18.73 88.08 45
NI 09:00:00 TS 19.00 88.14 45
NI 12:00:00 TS 19.27 88.25 45
NI 15:00:00 TS 19.53 88.35 45
NI 18:00:00 TS 19.75 88.42 45
NI 21:00:00 TS 19.94 88.49 45
NI 1888-10-06 00:00:00 TS 20.16 88.61 45
NI 03:00:00 TS 20.51 88.83 41
NI 06:00:00 TS 20.94 89.12 37
NI 09:00:00 TS 21.35 89.45 33
NI 12:00:00 TS 21.77 89.81 30
NI 15:00:00 TS 22.20 90.20 30
NI 18:00:00 TS 22.59 90.57 30
NI 21:00:00 TS 22.98 90.96 30
NI 1888-10-07 00:00:00 TS 23.35 91.33 30
NI 03:00:00 NR 23.60 91.60

Source Information

Agency Information
USA
TOKYO
CMA
HKO
NEWDELHI
REUNION
BOM
NADI
WELLINGTON
DS824 n_ind.dat:130:NOT NAMED
TD9636 cons_worldwide_trop_cyclone_18710101-19891231-004:Line=1319
TD9635
NEUMANN
MLC

All available IBTrACS Data

SEASON BASIN SUBBASIN ISO_TIME_________ NATURE LAT LON DIST2LAND LANDFALL IFLAG USA SSHS DS824 LAT DS824 LON DS824 STAGE DS824 WIND TD9636 LAT TD9636 LON TD9636 STAGE STORM SPEED STORM DIR
Year degrees north degrees east km km 1 degrees north degrees east kts degrees north degrees east kts degrees
1888 NI BB 1888-10-01 00:00:00 TS 14.50 93.80 159 159 _________O____ -1 14.50 93.80 TC 45 0 0
1888 NI BB 03:00:00 TS 14.50 93.80 159 159 _________PO___ -1 14.50 93.80 TC 45 14.50 93.80 3 0 0
1888 NI BB 06:00:00 TS 14.50 93.80 159 159 _________OP___ -1 14.50 93.80 TC 45 14.50 93.79 3 0 0
1888 NI BB 09:00:00 TS 14.50 93.80 159 159 _________PP___ -1 14.50 93.80 TC 45 14.50 93.79 3 0 0
1888 NI BB 12:00:00 TS 14.50 93.80 159 159 _________OP___ -1 14.50 93.80 TC 45 14.50 93.79 3 0 0
1888 NI BB 15:00:00 TS 14.50 93.80 159 159 _________PO___ -1 14.50 93.80 TC 45 14.50 93.80 3 0 0
1888 NI BB 18:00:00 TS 14.50 93.81 159 159 _________OP___ -1 14.50 93.80 TC 45 14.50 93.82 3 0 0
1888 NI BB 21:00:00 TS 14.50 93.82 159 159 _________PP___ -1 14.50 93.82 TC 45 14.49 93.83 3 0 0
1888 NI BB 1888-10-02 00:00:00 TS 14.50 93.81 159 159 _________OP___ -1 14.50 93.80 TC 45 14.49 93.83 3 1 270
1888 NI BB 03:00:00 TS 14.50 93.76 159 159 _________PO___ -1 14.49 93.71 TC 45 14.50 93.80 3 1 274
1888 NI BB 06:00:00 TS 14.51 93.66 163 163 _________OP___ -1 14.50 93.60 TC 45 14.51 93.73 3 2 283
1888 NI BB 09:00:00 TS 14.54 93.57 168 165 _________PP___ -1 14.54 93.50 TC 45 14.54 93.63 3 2 291
1888 NI BB 12:00:00 TS 14.58 93.46 165 165 _________OP___ -1 14.60 93.40 TC 45 14.56 93.52 3 2 292
1888 NI BB 15:00:00 TS 14.62 93.35 171 170 _________PO___ -1 14.65 93.30 TC 45 14.60 93.40 3 2 293
1888 NI BB 18:00:00 TS 14.66 93.27 170 170 _________OP___ -1 14.70 93.20 TC 45 14.62 93.34 3 2 294
1888 NI BB 21:00:00 TS 14.69 93.20 178 178 _________PP___ -1 14.73 93.14 TC 45 14.65 93.27 3 2 297
1888 NI BB 1888-10-03 00:00:00 TS 14.75 93.08 178 178 _________OP___ -1 14.80 93.00 TC 45 14.70 93.16 3 4 300
1888 NI BB 03:00:00 TS 14.89 92.84 194 194 _________PO___ -1 14.98 92.68 TC 45 14.80 93.00 3 6 301
1888 NI BB 06:00:00 TS 15.07 92.52 208 208 _________OP___ -1 15.20 92.30 TC 45 14.95 92.74 3 7 302
1888 NI BB 09:00:00 TS 15.27 92.21 228 228 _________PP___ -1 15.39 92.00 TC 45 15.14 92.43 3 7 303
1888 NI BB 12:00:00 TS 15.48 91.88 252 252 _________OP___ -1 15.60 91.70 TC 45 15.36 92.07 3 8 305
1888 NI BB 15:00:00 TS 15.72 91.53 290 289 _________PO___ -1 15.84 91.36 TC 45 15.60 91.70 3 8 306
1888 NI BB 18:00:00 TS 15.97 91.18 320 320 _________OP___ -1 16.10 91.00 TC 45 15.84 91.35 3 9 307
1888 NI BB 21:00:00 TS 16.23 90.82 364 364 _________PP___ -1 16.36 90.64 TC 45 16.10 91.00 3 8 307
1888 NI BB 1888-10-04 00:00:00 TS 16.48 90.47 399 399 _________OP___ -1 16.60 90.30 TC 45 16.36 90.65 3 8 306
1888 NI BB 03:00:00 TS 16.70 90.15 444 444 _________PO___ -1 16.81 90.00 TC 45 16.60 90.30 3 8 305
1888 NI BB 06:00:00 TS 16.91 89.83 474 460 _________OP___ -1 17.00 89.70 TC 45 16.81 89.95 3 8 302
1888 NI BB 09:00:00 TS 17.10 89.48 460 422 _________PP___ -1 17.20 89.35 TC 45 17.01 89.61 3 8 301
1888 NI BB 12:00:00 TS 17.30 89.15 414 384 _________OP___ -1 17.40 89.00 TC 45 17.20 89.29 3 7 302
1888 NI BB 15:00:00 TS 17.50 88.83 376 346 _________PO___ -1 17.59 88.67 TC 45 17.40 89.00 3 7 305
1888 NI BB 18:00:00 TS 17.70 88.55 346 308 _________OP___ -1 17.80 88.40 TC 45 17.61 88.70 3 7 312
1888 NI BB 21:00:00 TS 17.93 88.32 308 276 _________PP___ -1 18.03 88.20 TC 45 17.83 88.44 3 6 322
1888 NI BB 1888-10-05 00:00:00 TS 18.18 88.16 276 252 _________OP___ -1 18.30 88.10 TC 45 18.06 88.23 3 6 336
1888 NI BB 03:00:00 TS 18.45 88.08 252 230 _________PO___ -1 18.60 88.06 TC 45 18.30 88.10 3 6 352
1888 NI BB 06:00:00 TS 18.73 88.08 230 206 _________OP___ -1 18.90 88.10 TC 45 18.57 88.06 3 6 6
1888 NI BB 09:00:00 TS 19.00 88.14 206 192 _________PP___ -1 19.16 88.18 TC 45 18.85 88.10 3 6 16
1888 NI BB 12:00:00 TS 19.27 88.25 192 189 _________OP___ -1 19.40 88.30 TC 45 19.13 88.19 3 6 20
1888 NI BB 15:00:00 TS 19.53 88.35 198 183 _________PO___ -1 19.66 88.40 TC 45 19.40 88.30 3 5 19
1888 NI BB 18:00:00 TS 19.75 88.42 177 177 _________OP___ -1 19.90 88.50 TC 45 19.61 88.35 3 4 19
1888 NI BB 21:00:00 TS 19.94 88.49 180 168 _________PP___ -1 20.07 88.57 TC 45 19.80 88.42 3 4 23
1888 NI BB 1888-10-06 00:00:00 TS 20.16 88.61 156 123 _________OP___ -1 20.30 88.70 TC 45 20.03 88.53 3 7 29
1888 NI BB 03:00:00 TS 20.51 88.83 123 78 _________PO___ -1 20.72 88.96 TC 41 20.30 88.70 3 9 32
1888 NI BB 06:00:00 TS 20.94 89.12 78 44 _________OP___ -1 21.20 89.30 TC 37 20.67 88.95 3 10 34
1888 NI BB 09:00:00 TS 21.35 89.45 33 0 _________PP___ -1 21.61 89.64 TC 33 21.10 89.26 3 11 37
1888 NI BB 12:00:00 TS 21.77 89.81 0 0 _________OP___ -1 22.00 90.00 TC 30 21.55 89.62 3 11 39
1888 NI BB 15:00:00 TS 22.20 90.20 0 0 _________PO___ -1 22.40 90.39 TC 30 22.00 90.00 1 11 41
1888 NI BB 18:00:00 TS 22.59 90.57 0 0 _________OP___ -1 22.80 90.80 TC 30 22.43 90.39 1 11 42
1888 NI BB 21:00:00 TS 22.98 90.96 0 0 _________PP___ -1 23.20 91.20 TC 30 22.83 90.79 1 10 43
1888 NI BB 1888-10-07 00:00:00 TS 23.35 91.33 0 0 _________OP___ -1 23.60 91.60 TC 30 23.22 91.19 1 9 44
1888 NI BB 03:00:00 NR 23.60 91.60 0 __________O___ -1 TC 23.60 91.60 1 7 44